CheckWX is a tool to help pilots better visualize weather data.  It is not intended as a substitute for an official pre-flight weather briefing.

20:49:01 UTC

KROG TAF
Rogers Executive - Carter Field Airport
Rogers, Arkansas, USA
KROG 032322Z 0400/0424 21008KT P6SM SCT060 FM040600 19007KT P6SM SCT100 BKN250 PROB30 0409/0415 4SM -TSRA BKN030CB FM041500 21012KT P6SM SCT050 BKN250 PROB30 0419/0424 4SM -TSRA BKN030CB

Jun-4@
00:00 UTC

Jun-4 @ 00:00 UTC

Jun-4@
06:00 UTC

Jun-4 @ 06:00 UTC

TAF KROG 032322Z 0400/0424 21008KT P6SM SCT060

Expired

Wind
  • 210° at 8 KTS
Cloud Levels
  • Scattered at 6,000' AGL

Jun-4@
06:00 UTC

Jun-4 @ 06:00 UTC

Jun-4@
15:00 UTC

Jun-4 @ 15:00 UTC

FM040600 19007KT P6SM SCT100 BKN250

Expired

Wind
  • 190° at 7 KTS
Cloud Levels
  • Scattered at 10,000' AGL
  • Broken at 25,000' AGL

Jun-4@
09:00 UTC

Jun-4 @ 09:00 UTC

Jun-4@
15:00 UTC

Jun-4 @ 15:00 UTC

PROB30 0409/0415 4SM -TSRA BKN030CB

Expired

Conditions
Light Thunderstorm, Rain
Cloud Levels
  • Broken at 3,000' AGL

Jun-4@
15:00 UTC

Jun-4 @ 15:00 UTC

Jun-5@
00:00 UTC

Jun-5 @ 00:00 UTC

FM041500 21012KT P6SM SCT050 BKN250

From

From Standard forecast or significant change

Wind
  • 210° at 12 KTS
Cloud Levels
  • Scattered at 5,000' AGL
  • Broken at 25,000' AGL

Jun-4@
19:00 UTC

Jun-4 @ 19:00 UTC

Jun-5@
00:00 UTC

Jun-5 @ 00:00 UTC

PROB30 0419/0424 4SM -TSRA BKN030CB

Probable - 30% Likelihood

Probable - 30% Likelihood during this time.

Conditions
Light Thunderstorm, Rain
Cloud Levels
  • Broken at 3,000' AGL